Time;durP1;ratioP1;P1;durP2;ratioP2;P2;SDS_P1;SDS_P2;PMS_P1;PMS_P2;Temp;Humidity;BMP_temperature;BMP_pressure;BME280_temperature;BME280_humidity;BME280_pressure;Samples;Min_cycle;Max_cycle;Signal;HPM_P1;HPM_P2
2022/06/02 00:00:36;;;;;;;18.20;5.18;;;;;;;;;;5114933;28;20024;-67
2022/06/02 00:03:02;;;;;;;7.63;4.55;;;;;;;;;;5114607;28;20496;-67
2022/06/02 00:05:34;;;;;;;7.80;4.40;;;;;;;;;;5114742;28;20019;-67
2022/06/02 00:08:00;;;;;;;17.38;5.05;;;;;;;;;;5114758;28;20384;-67
2022/06/02 00:10:26;;;;;;;9.32;4.78;;;;;;;;;;5114906;28;20035;-67
2022/06/02 00:12:55;;;;;;;13.43;4.95;;;;;;;;;;5114777;28;20031;-67
2022/06/02 00:15:26;;;;;;;10.27;4.82;;;;;;;;;;5114606;28;20039;-67
2022/06/02 00:18:01;;;;;;;16.77;4.53;;;;;;;;;;5115068;28;20023;-67
2022/06/02 00:21:03;;;;;;;13.23;4.75;;;;;;;;;;5114588;28;20034;-67
2022/06/02 00:23:29;;;;;;;17.40;4.50;;;;;;;;;;5031861;28;20025;-67
2022/06/02 00:26:04;;;;;;;13.30;4.50;;;;;;;;;;5097623;28;20040;-68
2022/06/02 00:28:38;;;;;;;14.43;4.97;;;;;;;;;;5114391;28;20539;-67
2022/06/02 00:31:22;;;;;;;12.98;4.97;;;;;;;;;;5114424;28;20043;-67
2022/06/02 00:33:55;;;;;;;16.42;4.95;;;;;;;;;;5114223;28;20115;-67
2022/06/02 00:36:38;;;;;;;9.45;4.45;;;;;;;;;;5114258;28;20490;-67
2022/06/02 00:39:08;;;;;;;15.73;4.28;;;;;;;;;;5114444;28;20028;-68
2022/06/02 00:41:34;;;;;;;9.93;4.45;;;;;;;;;;5114482;28;20028;-67
2022/06/02 00:44:09;;;;;;;9.32;4.95;;;;;;;;;;5114036;28;20084;-67
2022/06/02 00:46:35;;;;;;;9.80;4.78;;;;;;;;;;5114048;28;20472;-67
2022/06/02 00:49:06;;;;;;;12.98;4.72;;;;;;;;;;5113933;28;20031;-67
2022/06/02 00:51:42;;;;;;;12.23;5.57;;;;;;;;;;5114327;28;20122;-67
2022/06/02 00:57:30;;;;;;;10.77;4.80;;;;;;;;;;5113758;28;20053;-67
2022/06/02 00:59:59;;;;;;;10.88;4.80;;;;;;;;;;5110298;28;20461;-67
2022/06/02 01:02:26;;;;;;;12.18;4.95;;;;;;;;;;5110845;28;20479;-68
2022/06/02 01:04:54;;;;;;;10.90;4.93;;;;;;;;;;5111954;28;20023;-67
2022/06/02 01:07:50;;;;;;;16.55;4.60;;;;;;;;;;5112691;28;20070;-68
2022/06/02 01:10:31;;;;;;;12.00;4.75;;;;;;;;;;5095731;28;20040;-67
2022/06/02 01:13:11;;;;;;;11.35;4.82;;;;;;;;;;5113452;28;20092;-67
2022/06/02 01:15:37;;;;;;;9.63;4.80;;;;;;;;;;5113372;28;20026;-67
2022/06/02 01:18:06;;;;;;;11.23;4.95;;;;;;;;;;5113483;28;20023;-68
2022/06/02 01:20:32;;;;;;;9.88;4.65;;;;;;;;;;5113134;28;20023;-67
2022/06/02 01:23:01;;;;;;;8.80;4.80;;;;;;;;;;5113549;28;20023;-67
2022/06/02 01:25:44;;;;;;;22.02;5.38;;;;;;;;;;5113470;28;20028;-68
2022/06/02 01:28:13;;;;;;;8.35;4.55;;;;;;;;;;5112997;28;20026;-68
2022/06/02 01:30:48;;;;;;;10.57;4.55;;;;;;;;;;5112990;28;20051;-68
2022/06/02 01:33:14;;;;;;;16.77;5.93;;;;;;;;;;5113360;28;20040;-68
2022/06/02 01:35:52;;;;;;;12.77;4.90;;;;;;;;;;5113315;28;20039;-68
2022/06/02 01:38:39;;;;;;;10.52;5.10;;;;;;;;;;5113114;28;20517;-68
2022/06/02 01:41:18;;;;;;;7.68;4.35;;;;;;;;;;5112549;28;20027;-68
2022/06/02 01:43:46;;;;;;;17.33;4.88;;;;;;;;;;5112195;28;20045;-68
2022/06/02 01:46:31;;;;;;;14.98;4.35;;;;;;;;;;5113288;28;20028;-68
2022/06/02 01:49:09;;;;;;;16.17;4.88;;;;;;;;;;5113427;28;20484;-68
2022/06/02 01:51:54;;;;;;;12.43;4.93;;;;;;;;;;5113086;28;20086;-67
2022/06/02 01:54:37;;;;;;;12.70;5.18;;;;;;;;;;5113354;28;20019;-67
2022/06/02 01:57:06;;;;;;;13.57;5.22;;;;;;;;;;5112879;28;20027;-67
2022/06/02 01:59:35;;;;;;;13.02;5.50;;;;;;;;;;5112962;28;20028;-68
2022/06/02 02:02:14;;;;;;;11.13;4.93;;;;;;;;;;5113202;28;20035;-67
2022/06/02 02:04:59;;;;;;;11.77;5.05;;;;;;;;;;5112938;28;20074;-67
2022/06/02 02:07:25;;;;;;;11.45;4.90;;;;;;;;;;5112535;28;20024;-67
2022/06/02 02:10:02;;;;;;;11.70;4.53;;;;;;;;;;5112976;28;20067;-67
2022/06/02 02:12:37;;;;;;;8.15;4.15;;;;;;;;;;5113317;28;20376;-67
2022/06/02 02:15:12;;;;;;;12.90;4.43;;;;;;;;;;5116858;28;20467;-67
2022/06/02 02:17:42;;;;;;;9.43;4.70;;;;;;;;;;5116615;28;20023;-67
2022/06/02 02:20:13;;;;;;;11.55;4.38;;;;;;;;;;5116992;28;20062;-67
2022/06/02 02:22:47;;;;;;;8.00;4.43;;;;;;;;;;5116981;28;20031;-67
2022/06/02 02:25:15;;;;;;;13.65;5.20;;;;;;;;;;5116757;28;20020;-67
2022/06/02 02:28:03;;;;;;;9.95;4.63;;;;;;;;;;5116857;28;20171;-68
2022/06/02 02:30:37;;;;;;;9.60;4.50;;;;;;;;;;5116551;28;20514;-67
2022/06/02 02:33:12;;;;;;;10.32;4.80;;;;;;;;;;5116608;28;20019;-67
2022/06/02 02:35:48;;;;;;;8.38;4.40;;;;;;;;;;5116557;28;20055;-67
2022/06/02 02:38:17;;;;;;;10.52;4.70;;;;;;;;;;5116453;28;20035;-68
2022/06/02 02:40:46;;;;;;;6.60;4.63;;;;;;;;;;5116516;28;20020;-68
2022/06/02 02:43:30;;;;;;;11.88;4.63;;;;;;;;;;5116439;28;20019;-67
2022/06/02 02:46:16;;;;;;;9.00;4.40;;;;;;;;;;5116282;28;20024;-67
2022/06/02 02:48:45;;;;;;;9.48;4.60;;;;;;;;;;5116465;28;20383;-67
2022/06/02 02:51:32;;;;;;;13.05;4.95;;;;;;;;;;5116157;28;20042;-67
2022/06/02 02:54:01;;;;;;;12.50;4.93;;;;;;;;;;5116449;28;20110;-68
2022/06/02 02:56:39;;;;;;;11.45;4.93;;;;;;;;;;5115955;28;20440;-67
2022/06/02 02:59:13;;;;;;;9.70;4.43;;;;;;;;;;5116162;28;20114;-67
2022/06/02 03:02:00;;;;;;;14.68;5.68;;;;;;;;;;5116047;28;20116;-68
2022/06/02 03:04:34;;;;;;;14.55;4.70;;;;;;;;;;5116243;28;20031;-68
2022/06/02 03:07:00;;;;;;;13.35;5.20;;;;;;;;;;5116011;28;20035;-68
2022/06/02 03:09:35;;;;;;;11.98;4.88;;;;;;;;;;5115583;28;20028;-68
2022/06/02 03:12:01;;;;;;;10.88;4.50;;;;;;;;;;5115907;28;20388;-67
2022/06/02 03:14:46;;;;;;;13.23;4.75;;;;;;;;;;5115858;28;20031;-68
2022/06/02 03:17:14;;;;;;;6.63;4.75;;;;;;;;;;5115860;28;20024;-67
2022/06/02 03:20:01;;;;;;;12.20;4.60;;;;;;;;;;5115696;28;20028;-67
2022/06/02 03:22:30;;;;;;;12.40;4.60;;;;;;;;;;5115323;28;20049;-68
2022/06/02 03:24:56;;;;;;;11.48;5.13;;;;;;;;;;5115586;28;20031;-68
2022/06/02 03:27:32;;;;;;;14.02;5.40;;;;;;;;;;5115655;28;20133;-67
2022/06/02 03:30:17;;;;;;;10.00;4.50;;;;;;;;;;5115447;28;20043;-67
2022/06/02 03:32:43;;;;;;;13.13;4.45;;;;;;;;;;5115676;28;20015;-67
2022/06/02 03:35:32;;;;;;;14.80;5.15;;;;;;;;;;5115663;28;20444;-68
2022/06/02 03:38:00;;;;;;;11.77;4.70;;;;;;;;;;5104914;28;20032;-67
2022/06/02 03:40:35;;;;;;;14.65;5.50;;;;;;;;;;5115613;28;20376;-67
2022/06/02 03:43:04;;;;;;;15.05;4.97;;;;;;;;;;5115552;28;20019;-68
2022/06/02 03:45:33;;;;;;;12.30;5.40;;;;;;;;;;5115314;28;20093;-67
2022/06/02 03:47:59;;;;;;;11.40;4.78;;;;;;;;;;5114983;28;20023;-67
2022/06/02 03:50:25;;;;;;;13.10;4.57;;;;;;;;;;5115052;28;20035;-68
2022/06/02 03:52:57;;;;;;;12.30;5.20;;;;;;;;;;5115304;28;20047;-67
2022/06/02 03:55:24;;;;;;;15.77;5.32;;;;;;;;;;5115134;28;20080;-68
2022/06/02 03:57:50;;;;;;;9.93;4.70;;;;;;;;;;5114943;28;20066;-68
2022/06/02 04:00:25;;;;;;;9.95;4.65;;;;;;;;;;5114831;28;20082;-68
2022/06/02 04:02:55;;;;;;;10.73;4.70;;;;;;;;;;5114744;28;20023;-67
2022/06/02 04:05:30;;;;;;;12.38;5.03;;;;;;;;;;5114856;28;20080;-68
2022/06/02 04:08:09;;;;;;;9.82;4.60;;;;;;;;;;5114796;28;20024;-68
2022/06/02 04:10:35;;;;;;;15.00;4.93;;;;;;;;;;5114855;28;20055;-68
2022/06/02 04:16:14;;;;;;;14.60;5.00;;;;;;;;;;5115051;28;20151;-68
2022/06/02 04:18:53;;;;;;;9.07;4.85;;;;;;;;;;5114771;28;20611;-68
2022/06/02 04:21:37;;;;;;;9.52;4.93;;;;;;;;;;5114817;28;20464;-68
2022/06/02 04:24:15;;;;;;;10.43;5.25;;;;;;;;;;5114614;28;20023;-68
2022/06/02 04:27:01;;;;;;;12.13;4.82;;;;;;;;;;5114633;28;20590;-68
2022/06/02 04:29:33;;;;;;;9.13;4.80;;;;;;;;;;5114262;28;20043;-68
2022/06/02 04:32:08;;;;;;;12.38;4.90;;;;;;;;;;5114346;28;20027;-68
2022/06/02 04:34:54;;;;;;;10.63;5.28;;;;;;;;;;5113460;28;20019;-68
2022/06/02 04:37:28;;;;;;;10.20;4.70;;;;;;;;;;5114305;28;20038;-68
2022/06/02 04:40:09;;;;;;;9.80;5.05;;;;;;;;;;5114274;28;20102;-68
2022/06/02 04:42:44;;;;;;;13.23;5.15;;;;;;;;;;5113994;28;20391;-68
2022/06/02 04:45:24;;;;;;;8.95;4.45;;;;;;;;;;5114191;28;20016;-68
2022/06/02 04:47:55;;;;;;;10.93;4.13;;;;;;;;;;5114237;28;20031;-68
2022/06/02 04:50:32;;;;;;;11.73;5.05;;;;;;;;;;5113797;28;20027;-68
2022/06/02 04:53:31;;;;;;;10.32;4.32;;;;;;;;;;5114054;28;20020;-68
2022/06/02 04:56:02;;;;;;;9.80;4.38;;;;;;;;;;5069353;28;20040;-68
2022/06/02 04:58:31;;;;;;;14.23;4.53;;;;;;;;;;5114061;28;20028;-68
2022/06/02 05:01:05;;;;;;;9.95;4.40;;;;;;;;;;5113816;28;20024;-69
2022/06/02 05:03:49;;;;;;;10.15;4.43;;;;;;;;;;5113690;28;20023;-68
2022/06/02 05:06:18;;;;;;;12.73;4.10;;;;;;;;;;5113563;28;20052;-68
2022/06/02 05:08:44;;;;;;;9.55;4.10;;;;;;;;;;5113755;28;20137;-68
2022/06/02 05:11:33;;;;;;;8.85;4.10;;;;;;;;;;5114002;28;20031;-68
2022/06/02 05:14:18;;;;;;;11.38;4.30;;;;;;;;;;5113688;28;20121;-68
2022/06/02 05:16:47;;;;;;;9.35;4.00;;;;;;;;;;5113814;28;20032;-68
2022/06/02 05:19:22;;;;;;;9.40;4.15;;;;;;;;;;5113735;28;20023;-68
2022/06/02 05:22:02;;;;;;;9.65;4.20;;;;;;;;;;5113773;28;20464;-67
2022/06/02 05:24:47;;;;;;;10.15;4.38;;;;;;;;;;5113475;28;20024;-68
2022/06/02 05:27:22;;;;;;;10.20;4.30;;;;;;;;;;5113409;28;20015;-68
2022/06/02 05:30:08;;;;;;;9.82;4.13;;;;;;;;;;5112920;28;20052;-68
2022/06/02 05:32:53;;;;;;;14.75;4.47;;;;;;;;;;5071876;28;20028;-69
2022/06/02 05:35:37;;;;;;;12.80;4.55;;;;;;;;;;5113317;28;20506;-68
2022/06/02 05:38:13;;;;;;;8.80;4.07;;;;;;;;;;5113027;28;20444;-68
2022/06/02 05:40:53;;;;;;;9.55;4.13;;;;;;;;;;5112762;28;20170;-68
2022/06/02 05:43:25;;;;;;;13.63;4.43;;;;;;;;;;5112803;28;20465;-69
2022/06/02 05:46:04;;;;;;;11.43;5.03;;;;;;;;;;5113570;28;20031;-68
2022/06/02 05:48:50;;;;;;;15.38;4.57;;;;;;;;;;5117363;28;20019;-69
2022/06/02 05:51:16;;;;;;;19.70;5.30;;;;;;;;;;5076094;27;20052;-68
2022/06/02 05:53:46;;;;;;;18.08;5.00;;;;;;;;;;5117600;28;20027;-68
2022/06/02 05:56:33;;;;;;;23.92;5.85;;;;;;;;;;5116709;28;20038;-68
2022/06/02 05:59:05;;;;;;;19.67;6.28;;;;;;;;;;5116779;28;20468;-68
2022/06/02 06:01:31;;;;;;;;;;;;;;;;;;5117407;28;20488;-69
2022/06/02 06:03:59;;;;;;;17.88;4.80;;;;;;;;;;5114712;28;19950;-69
2022/06/02 06:06:33;;;;;;;17.60;5.15;;;;;;;;;;5113961;28;20414;-69
2022/06/02 06:09:12;;;;;;;8.00;4.50;;;;;;;;;;5112203;28;20080;-67
2022/06/02 06:11:56;;;;;;;24.10;6.22;;;;;;;;;;5115329;28;20092;-68
2022/06/02 06:15:01;;;;;;;16.25;5.03;;;;;;;;;;5116527;28;20444;-68
2022/06/02 06:17:45;;;;;;;25.38;5.43;;;;;;;;;;5023226;28;20096;-67
2022/06/02 06:20:33;;;;;;;18.15;5.30;;;;;;;;;;4980750;28;20038;-68
2022/06/02 06:23:05;;;;;;;25.50;5.95;;;;;;;;;;4998165;28;20041;-69
2022/06/02 06:25:41;;;;;;;16.58;5.10;;;;;;;;;;5034656;28;20030;-69
2022/06/02 06:28:10;;;;;;;11.68;4.80;;;;;;;;;;5032442;28;20033;-68
2022/06/02 06:30:59;;;;;;;21.00;5.05;;;;;;;;;;5029991;28;20497;-68
2022/06/02 06:33:27;;;;;;;31.58;10.25;;;;;;;;;;5033754;28;20052;-67
2022/06/02 06:36:08;;;;;;;17.35;5.82;;;;;;;;;;5036138;28;20163;-67
2022/06/02 06:38:39;;;;;;;14.23;6.03;;;;;;;;;;5036171;28;20024;-66
2022/06/02 06:41:25;;;;;;;15.57;5.90;;;;;;;;;;5033257;28;20036;-67
2022/06/02 06:43:51;;;;;;;19.38;5.50;;;;;;;;;;5031751;28;20493;-68
2022/06/02 06:46:20;;;;;;;13.70;6.72;;;;;;;;;;5033051;28;20029;-68
2022/06/02 06:48:55;;;;;;;14.98;5.90;;;;;;;;;;5034274;28;20501;-67
2022/06/02 06:51:27;;;;;;;15.43;5.75;;;;;;;;;;5035754;28;20065;-70
2022/06/02 06:53:53;;;;;;;;;;;;;;;;;;5033930;28;20394;-69
2022/06/02 06:56:22;;;;;;;15.35;6.00;;;;;;;;;;5032937;28;19915;-69
2022/06/02 06:58:57;;;;;;;10.18;5.00;;;;;;;;;;5032196;28;20025;-70
2022/06/02 07:01:39;;;;;;;14.45;5.13;;;;;;;;;;5035369;28;20474;-69
2022/06/02 07:04:17;;;;;;;18.23;4.75;;;;;;;;;;5035378;28;20116;-70
2022/06/02 07:07:02;;;;;;;16.40;5.20;;;;;;;;;;5035456;28;20021;-70
2022/06/02 07:09:28;;;;;;;19.15;5.80;;;;;;;;;;5035234;28;20026;-68
2022/06/02 07:14:58;;;;;;;15.50;5.07;;;;;;;;;;5035325;28;20040;-67
2022/06/02 07:17:33;;;;;;;16.38;5.03;;;;;;;;;;5035233;28;20032;-68
2022/06/02 07:19:59;;;;;;;15.27;4.90;;;;;;;;;;5035099;28;20436;-68
2022/06/02 07:22:29;;;;;;;15.13;4.15;;;;;;;;;;5035084;28;20108;-67
2022/06/02 07:25:15;;;;;;;12.40;4.90;;;;;;;;;;5034875;28;20115;-67
2022/06/02 07:28:02;;;;;;;12.13;4.50;;;;;;;;;;5035279;28;20033;-67
2022/06/02 07:30:48;;;;;;;14.73;4.47;;;;;;;;;;5034604;28;20550;-67
2022/06/02 07:33:26;;;;;;;14.32;4.35;;;;;;;;;;5035246;28;20083;-68
2022/06/02 07:36:11;;;;;;;10.23;3.63;;;;;;;;;;5034652;28;20025;-67
2022/06/02 07:38:45;;;;;;;9.07;3.60;;;;;;;;;;5034750;28;20037;-68
2022/06/02 07:41:18;;;;;;;12.13;3.40;;;;;;;;;;5034752;28;20029;-66
2022/06/02 07:43:50;;;;;;;11.75;3.50;;;;;;;;;;5034816;28;20022;-68
2022/06/02 07:46:19;;;;;;;16.50;3.38;;;;;;;;;;5034530;28;20034;-68
2022/06/02 07:49:04;;;;;;;9.70;3.20;;;;;;;;;;5034830;28;20022;-68
2022/06/02 07:51:47;;;;;;;10.90;3.65;;;;;;;;;;5034594;28;20040;-68
2022/06/02 07:54:22;;;;;;;11.90;3.45;;;;;;;;;;5033061;28;20036;-67
2022/06/02 07:56:56;;;;;;;7.72;3.10;;;;;;;;;;5034255;28;20026;-67
2022/06/02 07:59:31;;;;;;;13.68;3.63;;;;;;;;;;5034228;28;20021;-66
2022/06/02 08:02:12;;;;;;;12.48;3.35;;;;;;;;;;5034157;28;20033;-68
2022/06/02 08:04:58;;;;;;;10.47;3.40;;;;;;;;;;5033923;28;20413;-69
2022/06/02 08:07:42;;;;;;;12.00;3.88;;;;;;;;;;5033493;28;20025;-70
2022/06/02 08:10:08;;;;;;;13.00;3.85;;;;;;;;;;5032844;28;20478;-67
2022/06/02 08:12:58;;;;;;;11.30;3.35;;;;;;;;;;5033741;28;20088;-67
2022/06/02 08:15:30;;;;;;;9.73;3.85;;;;;;;;;;5032424;28;20033;-67
2022/06/02 08:17:58;;;;;;;13.25;3.50;;;;;;;;;;5034382;28;20413;-67
2022/06/02 08:20:27;;;;;;;12.88;3.38;;;;;;;;;;5034117;28;20024;-67
2022/06/02 08:22:53;;;;;;;8.48;3.38;;;;;;;;;;5034110;28;20033;-67
2022/06/02 08:25:24;;;;;;;10.90;3.92;;;;;;;;;;5034544;28;20481;-67
2022/06/02 08:27:53;;;;;;;12.82;3.35;;;;;;;;;;5032391;28;20379;-67
2022/06/02 08:30:23;;;;;;;8.07;3.33;;;;;;;;;;5032475;28;20052;-67
2022/06/02 08:33:13;;;;;;;10.32;3.45;;;;;;;;;;5033224;28;20026;-67
2022/06/02 08:35:57;;;;;;;11.05;3.70;;;;;;;;;;5033552;28;20135;-67
2022/06/02 08:38:41;;;;;;;12.27;3.38;;;;;;;;;;5033643;28;20029;-68
2022/06/02 08:41:29;;;;;;;12.48;3.42;;;;;;;;;;5033774;28;20486;-67
2022/06/02 08:44:06;;;;;;;7.57;4.10;;;;;;;;;;5033738;28;20021;-68
2022/06/02 08:46:38;;;;;;;8.05;3.10;;;;;;;;;;5033554;28;20033;-68
2022/06/02 08:49:03;;;;;;;;;;;;;;;;;;5034355;28;20382;-67
2022/06/02 08:51:48;;;;;;;10.60;3.67;;;;;;;;;;5033711;28;19913;-67
2022/06/02 08:54:25;;;;;;;11.48;4.05;;;;;;;;;;5033491;28;20026;-67
2022/06/02 08:56:53;;;;;;;13.93;4.40;;;;;;;;;;5033620;28;20154;-67
2022/06/02 08:59:19;;;;;;;11.00;3.88;;;;;;;;;;5033568;28;20025;-67
2022/06/02 09:02:04;;;;;;;10.90;3.60;;;;;;;;;;5033097;28;20386;-67
2022/06/02 09:04:30;;;;;;;15.05;4.47;;;;;;;;;;5033329;28;20026;-67
2022/06/02 09:07:15;;;;;;;15.32;5.10;;;;;;;;;;5033204;28;20410;-67
2022/06/02 09:09:47;;;;;;;16.80;5.38;;;;;;;;;;5032765;28;20029;-68
2022/06/02 09:12:22;;;;;;;10.40;3.78;;;;;;;;;;5033248;28;20367;-67
2022/06/02 09:15:03;;;;;;;9.07;4.10;;;;;;;;;;5033109;28;20025;-67
2022/06/02 09:17:35;;;;;;;10.60;4.03;;;;;;;;;;5033279;28;20030;-67
2022/06/02 09:20:07;;;;;;;8.02;3.90;;;;;;;;;;5033319;28;20048;-67
2022/06/02 09:22:54;;;;;;;9.80;4.15;;;;;;;;;;5032336;28;20032;-67
2022/06/02 09:25:33;;;;;;;10.50;4.53;;;;;;;;;;5031763;28;20029;-67
2022/06/02 09:28:27;;;;;;;16.70;4.90;;;;;;;;;;5033028;28;20041;-68
2022/06/02 09:31:05;;;;;;;17.15;4.82;;;;;;;;;;5032675;28;20116;-67
2022/06/02 09:33:38;;;;;;;9.65;4.35;;;;;;;;;;5051881;28;20294;-67
2022/06/02 09:36:20;;;;;;;14.93;4.85;;;;;;;;;;5052904;28;20017;-67
2022/06/02 09:39:01;;;;;;;11.25;4.88;;;;;;;;;;5052437;28;20044;-67
2022/06/02 09:41:27;;;;;;;11.93;4.30;;;;;;;;;;5052833;28;20029;-67
2022/06/02 09:44:02;;;;;;;15.60;4.50;;;;;;;;;;5052890;28;20025;-68
2022/06/02 09:46:48;;;;;;;11.10;4.38;;;;;;;;;;5052712;28;20025;-67
2022/06/02 09:49:32;;;;;;;10.18;3.95;;;;;;;;;;5052677;28;20017;-67
2022/06/02 09:52:17;;;;;;;7.75;4.57;;;;;;;;;;5053102;28;20134;-67
2022/06/02 09:55:09;;;;;;;14.40;4.90;;;;;;;;;;5052884;28;20025;-67
2022/06/02 09:57:57;;;;;;;9.20;4.65;;;;;;;;;;5036885;28;20033;-67
2022/06/02 10:00:31;;;;;;;11.25;4.38;;;;;;;;;;5052898;28;20021;-67
2022/06/02 10:03:19;;;;;;;15.52;4.05;;;;;;;;;;5052842;28;20033;-67
2022/06/02 10:05:45;;;;;;;11.32;3.97;;;;;;;;;;5052732;28;20033;-67
2022/06/02 10:08:11;;;;;;;12.60;4.40;;;;;;;;;;5052647;28;20022;-67
2022/06/02 10:10:40;;;;;;;8.20;4.15;;;;;;;;;;5052581;28;20092;-67
2022/06/02 10:13:07;;;;;;;11.70;3.88;;;;;;;;;;5052799;28;20107;-67
2022/06/02 10:15:42;;;;;;;11.18;4.28;;;;;;;;;;5052669;28;20036;-67
2022/06/02 10:18:11;;;;;;;13.40;3.97;;;;;;;;;;5052723;28;20755;-67
2022/06/02 10:20:57;;;;;;;9.20;4.13;;;;;;;;;;5052556;28;20024;-67
2022/06/02 10:23:41;;;;;;;10.07;3.63;;;;;;;;;;5052657;28;20017;-67
2022/06/02 10:26:14;;;;;;;12.98;4.55;;;;;;;;;;5052711;28;20109;-67
2022/06/02 10:28:48;;;;;;;12.70;3.85;;;;;;;;;;5052245;28;20358;-67
2022/06/02 10:31:28;;;;;;;12.10;4.00;;;;;;;;;;5052424;28;20132;-67
2022/06/02 10:34:05;;;;;;;10.23;4.18;;;;;;;;;;5054720;28;20017;-67
2022/06/02 10:36:31;;;;;;;11.38;3.92;;;;;;;;;;5056043;28;20430;-67
2022/06/02 10:39:16;;;;;;;12.68;4.03;;;;;;;;;;5055915;28;20059;-67
2022/06/02 10:41:57;;;;;;;13.07;4.28;;;;;;;;;;5056126;28;20113;-67
2022/06/02 10:44:34;;;;;;;9.48;4.38;;;;;;;;;;5056149;28;20047;-67
2022/06/02 10:47:01;;;;;;;15.18;4.28;;;;;;;;;;5055732;28;20065;-67
2022/06/02 10:49:33;;;;;;;13.57;4.13;;;;;;;;;;5055267;28;20025;-70
2022/06/02 10:51:59;;;;;;;;;;;;;;;;;;5054929;28;20029;-68
2022/06/02 10:54:40;;;;;;;11.48;4.55;;;;;;;;;;5054230;28;20372;-67
2022/06/02 10:57:12;;;;;;;8.57;4.13;;;;;;;;;;5054448;28;20473;-69
2022/06/02 10:59:57;;;;;;;10.73;4.43;;;;;;;;;;5054203;28;20294;-67
2022/06/02 11:02:25;;;;;;;11.90;4.13;;;;;;;;;;5053854;28;20417;-67
2022/06/02 11:04:55;;;;;;;14.25;4.28;;;;;;;;;;5055444;28;20032;-67
2022/06/02 11:07:22;;;;;;;10.23;4.25;;;;;;;;;;5055494;28;20547;-67
2022/06/02 11:10:05;;;;;;;11.73;4.75;;;;;;;;;;5055251;28;20044;-67
2022/06/02 11:12:31;;;;;;;11.48;4.63;;;;;;;;;;5055357;28;20021;-67
2022/06/02 11:14:57;;;;;;;11.90;4.47;;;;;;;;;;5054993;28;20051;-66
2022/06/02 11:17:35;;;;;;;10.90;4.25;;;;;;;;;;5055167;28;20028;-67
2022/06/02 11:20:20;;;;;;;10.68;4.20;;;;;;;;;;5055053;28;20021;-67
2022/06/02 11:22:46;;;;;;;12.05;4.85;;;;;;;;;;5054895;28;20049;-67
2022/06/02 11:25:15;;;;;;;11.13;4.22;;;;;;;;;;5054895;28;20055;-67
2022/06/02 11:28:00;;;;;;;10.55;4.38;;;;;;;;;;5054918;28;20025;-67
2022/06/02 11:30:27;;;;;;;7.60;3.95;;;;;;;;;;5054680;28;20053;-67
2022/06/02 11:33:14;;;;;;;12.40;4.07;;;;;;;;;;5054990;28;20416;-67
2022/06/02 11:35:43;;;;;;;14.75;4.10;;;;;;;;;;5054850;28;20481;-67
2022/06/02 11:38:18;;;;;;;6.43;3.38;;;;;;;;;;5054545;28;20021;-67
2022/06/02 11:41:07;;;;;;;8.80;3.70;;;;;;;;;;5054509;28;20036;-67
2022/06/02 11:43:50;;;;;;;13.10;3.90;;;;;;;;;;5035203;28;20091;-67
2022/06/02 11:46:16;;;;;;;10.18;4.13;;;;;;;;;;5052803;28;20052;-67
2022/06/02 11:48:59;;;;;;;8.70;4.00;;;;;;;;;;5052025;28;20765;-67
2022/06/02 11:51:31;;;;;;;11.75;4.35;;;;;;;;;;5051798;28;20037;-67
2022/06/02 11:54:00;;;;;;;12.20;4.10;;;;;;;;;;5054196;28;20017;-67
2022/06/02 11:56:38;;;;;;;10.82;3.72;;;;;;;;;;5054516;28;20102;-67
2022/06/02 11:59:04;;;;;;;9.05;4.07;;;;;;;;;;5052012;28;20489;-68
2022/06/02 12:01:34;;;;;;;11.05;4.07;;;;;;;;;;5053878;28;20013;-67
2022/06/02 12:04:06;;;;;;;13.05;4.55;;;;;;;;;;5054322;28;20032;-67
2022/06/02 12:06:38;;;;;;;12.73;4.82;;;;;;;;;;5054320;28;20025;-68
2022/06/02 12:09:20;;;;;;;16.98;4.63;;;;;;;;;;5052965;28;20501;-67
2022/06/02 12:11:52;;;;;;;10.75;3.90;;;;;;;;;;5053561;28;20450;-66
2022/06/02 12:14:24;;;;;;;8.70;4.05;;;;;;;;;;5054161;28;20032;-65
2022/06/02 12:17:06;;;;;;;9.50;3.97;;;;;;;;;;5051453;28;20432;-67
2022/06/02 12:19:37;;;;;;;13.43;4.18;;;;;;;;;;5051336;28;20021;-68
2022/06/02 12:22:22;;;;;;;10.35;4.05;;;;;;;;;;5050332;28;20024;-67
2022/06/02 12:24:55;;;;;;;8.02;3.63;;;;;;;;;;5051723;28;20025;-66
2022/06/02 12:27:36;;;;;;;12.38;3.72;;;;;;;;;;5051881;28;20077;-65
2022/06/02 12:30:21;;;;;;;7.65;3.67;;;;;;;;;;5050347;28;20045;-65
2022/06/02 12:32:47;;;;;;;10.40;3.70;;;;;;;;;;5051001;28;20020;-65
2022/06/02 12:35:13;;;;;;;7.95;3.85;;;;;;;;;;5051754;28;20068;-65
2022/06/02 12:37:55;;;;;;;10.20;4.07;;;;;;;;;;5051731;28;20414;-68
2022/06/02 12:40:29;;;;;;;8.88;3.88;;;;;;;;;;5050059;28;20029;-65
2022/06/02 12:43:13;;;;;;;12.23;3.78;;;;;;;;;;5049788;28;20037;-65
2022/06/02 12:45:39;;;;;;;11.93;4.05;;;;;;;;;;5052590;28;20409;-65
2022/06/02 12:48:11;;;;;;;9.48;3.95;;;;;;;;;;5050000;28;20028;-66
2022/06/02 12:50:43;;;;;;;9.57;3.88;;;;;;;;;;5050071;28;20036;-66
2022/06/02 12:53:28;;;;;;;11.07;4.13;;;;;;;;;;5049734;28;20021;-66
2022/06/02 12:55:54;;;;;;;9.82;3.58;;;;;;;;;;5052770;28;20028;-65
2022/06/02 12:58:38;;;;;;;10.07;4.15;;;;;;;;;;5053096;28;20036;-65
2022/06/02 13:01:20;;;;;;;10.75;3.83;;;;;;;;;;5053234;28;20096;-68
2022/06/02 13:04:04;;;;;;;20.08;4.30;;;;;;;;;;5052487;28;20055;-65
2022/06/02 13:06:33;;;;;;;10.80;4.05;;;;;;;;;;5052889;28;20067;-65
2022/06/02 13:09:02;;;;;;;11.55;3.50;;;;;;;;;;5052402;28;20107;-67
2022/06/02 13:11:48;;;;;;;11.15;3.72;;;;;;;;;;5051386;28;20129;-67
2022/06/02 13:14:23;;;;;;;13.40;4.22;;;;;;;;;;5031643;28;20559;-68
2022/06/02 13:16:53;;;;;;;9.48;3.80;;;;;;;;;;5052229;28;20316;-68
2022/06/02 13:19:41;;;;;;;14.18;4.88;;;;;;;;;;5051370;28;20025;-66
2022/06/02 13:22:07;;;;;;;11.40;4.10;;;;;;;;;;5031509;28;20048;-66
2022/06/02 13:24:51;;;;;;;9.75;4.25;;;;;;;;;;5052524;28;20104;-68
2022/06/02 13:27:30;;;;;;;8.70;3.75;;;;;;;;;;5052376;28;20512;-68
2022/06/02 13:29:59;;;;;;;8.52;3.72;;;;;;;;;;5052024;28;20127;-67
2022/06/02 13:32:44;;;;;;;12.25;4.47;;;;;;;;;;5051976;28;20037;-68
2022/06/02 13:35:16;;;;;;;16.17;3.78;;;;;;;;;;5051944;28;20461;-66
2022/06/02 13:37:55;;;;;;;14.30;3.75;;;;;;;;;;5052553;28;20029;-65
2022/06/02 13:40:28;;;;;;;9.15;3.65;;;;;;;;;;5052441;28;20051;-68
2022/06/02 13:43:13;;;;;;;12.95;3.60;;;;;;;;;;5052218;28;20033;-65
2022/06/02 13:45:48;;;;;;;9.77;4.10;;;;;;;;;;5051670;28;20485;-66
2022/06/02 13:48:17;;;;;;;12.88;4.07;;;;;;;;;;5051380;28;20501;-65
2022/06/02 13:50:56;;;;;;;13.45;3.72;;;;;;;;;;5050947;28;20088;-66
2022/06/02 13:57:30;;;;;;;10.65;4.28;;;;;;;;;;5051624;28;20174;-68
2022/06/02 13:59:40;;;;;;;9.32;3.85;;;;;;;;;;5051867;28;20378;-66
2022/06/02 14:02:19;;;;;;;11.65;3.75;;;;;;;;;;5051294;28;20024;-67
2022/06/02 14:04:45;;;;;;;6.70;3.40;;;;;;;;;;5051329;28;20025;-66
2022/06/02 14:07:11;;;;;;;7.82;3.55;;;;;;;;;;5051928;28;20100;-66
2022/06/02 14:09:48;;;;;;;11.45;3.80;;;;;;;;;;5056121;28;20021;-66
2022/06/02 14:12:15;;;;;;;14.77;3.45;;;;;;;;;;5056073;28;20037;-66
2022/06/02 14:14:43;;;;;;;9.65;3.53;;;;;;;;;;5054911;28;20029;-67
2022/06/02 14:17:28;;;;;;;9.40;3.17;;;;;;;;;;5054720;28;20082;-69
2022/06/02 14:20:09;;;;;;;8.52;3.25;;;;;;;;;;5054930;28;20032;-69
2022/06/02 14:22:42;;;;;;;13.02;4.00;;;;;;;;;;5036030;28;20033;-67
2022/06/02 14:25:26;;;;;;;10.82;3.42;;;;;;;;;;5035466;28;20025;-67
2022/06/02 14:27:52;;;;;;;11.23;3.53;;;;;;;;;;5035835;28;20025;-68
2022/06/02 14:30:18;;;;;;;10.18;3.55;;;;;;;;;;5035408;28;20068;-68
2022/06/02 14:32:49;;;;;;;12.50;3.50;;;;;;;;;;5071623;28;20055;-68
2022/06/02 14:35:18;;;;;;;13.18;3.47;;;;;;;;;;5074049;28;20025;-67
2022/06/02 14:37:57;;;;;;;7.38;2.97;;;;;;;;;;5075915;28;20384;-67
2022/06/02 14:40:31;;;;;;;10.02;3.40;;;;;;;;;;5075918;28;20099;-66
2022/06/02 14:43:07;;;;;;;11.32;3.53;;;;;;;;;;5074045;28;20112;-66
2022/06/02 14:45:53;;;;;;;9.25;3.70;;;;;;;;;;5073400;28;20071;-66
2022/06/02 14:48:19;;;;;;;8.45;3.33;;;;;;;;;;5073621;28;20025;-66
2022/06/02 14:50:57;;;;;;;9.68;3.13;;;;;;;;;;5075040;28;20388;-66
2022/06/02 14:53:40;;;;;;;5.18;3.03;;;;;;;;;;5075473;28;20381;-66
2022/06/02 14:56:22;;;;;;;6.85;3.15;;;;;;;;;;5075476;28;20029;-65
2022/06/02 14:59:03;;;;;;;10.93;3.03;;;;;;;;;;5075605;28;20082;-66
2022/06/02 15:01:38;;;;;;;8.65;2.97;;;;;;;;;;5074687;28;20385;-66
2022/06/02 15:04:15;;;;;;;5.57;2.80;;;;;;;;;;5075066;28;20016;-66
2022/06/02 15:06:48;;;;;;;9.10;3.20;;;;;;;;;;5074301;28;20576;-65
2022/06/02 15:09:29;;;;;;;6.28;2.67;;;;;;;;;;5074698;28;20031;-65
2022/06/02 15:12:10;;;;;;;8.82;3.45;;;;;;;;;;5074750;28;20086;-66
2022/06/02 15:14:55;;;;;;;11.20;4.07;;;;;;;;;;5074797;28;20028;-66
2022/06/02 15:17:40;;;;;;;6.32;3.00;;;;;;;;;;5075131;28;20028;-66
2022/06/02 15:20:17;;;;;;;8.07;3.10;;;;;;;;;;5074648;28;20044;-66
2022/06/02 15:22:52;;;;;;;7.10;2.70;;;;;;;;;;5075342;28;20448;-65
2022/06/02 15:25:31;;;;;;;6.45;2.67;;;;;;;;;;5075178;28;20111;-66
2022/06/02 15:28:00;;;;;;;7.32;2.90;;;;;;;;;;5075200;28;20052;-66
2022/06/02 15:30:38;;;;;;;10.07;3.85;;;;;;;;;;5074667;28;20055;-65
2022/06/02 15:33:07;;;;;;;8.40;3.22;;;;;;;;;;5074976;28;20036;-66
2022/06/02 15:35:50;;;;;;;7.47;3.13;;;;;;;;;;5075341;28;20055;-65
2022/06/02 15:38:34;;;;;;;6.60;3.28;;;;;;;;;;5075135;28;20526;-65